createdAt,value
2019-04-05T00:04:47.752Z,3.37
2019-04-05T00:09:51.206Z,3.27
2019-04-05T00:14:54.665Z,3.10
2019-04-05T00:19:58.287Z,2.80
2019-04-05T00:25:01.745Z,3.05
2019-04-05T00:30:10.145Z,3.05
2019-04-05T00:35:13.604Z,3.03
2019-04-05T00:40:17.228Z,3.30
2019-04-05T00:45:27.957Z,3.17
2019-04-05T00:50:26.138Z,3.05
2019-04-05T00:55:29.586Z,2.80
2019-04-05T01:00:33.069Z,2.95
2019-04-05T01:05:36.759Z,2.80
2019-04-05T01:10:40.217Z,2.80
2019-04-05T01:15:43.676Z,2.58
2019-04-05T01:20:49.078Z,2.33
2019-04-05T01:25:54.250Z,3.00
2019-04-05T01:30:57.774Z,2.58
2019-04-05T01:36:01.217Z,2.75
2019-04-05T01:41:04.749Z,2.98
2019-04-05T01:46:08.635Z,2.47
2019-04-05T01:51:12.091Z,2.37
2019-04-05T01:56:15.574Z,2.60
2019-04-05T02:01:19.269Z,3.10
2019-04-05T02:06:22.728Z,2.67
2019-04-05T02:11:26.249Z,2.90
2019-04-05T02:16:29.774Z,2.47
2019-04-05T02:21:33.227Z,3.08
2019-04-05T02:26:36.675Z,2.83
2019-04-05T02:31:40.196Z,3.00
2019-04-05T02:36:43.643Z,3.30
2019-04-05T02:41:48.634Z,3.15
2019-04-05T02:46:54.831Z,2.27
2019-04-05T02:52:00.726Z,2.70
2019-04-05T02:57:04.711Z,2.75
2019-04-05T03:02:08.922Z,2.40
2019-04-05T03:07:13.939Z,3.00
2019-04-05T03:12:19.232Z,2.87
2019-04-05T03:17:23.897Z,2.72
2019-04-05T03:22:29.689Z,3.27
2019-04-05T03:27:36.230Z,2.40
2019-04-05T03:32:39.688Z,2.52
2019-04-05T03:37:43.385Z,2.65
2019-04-05T03:42:46.838Z,2.67
2019-04-05T03:47:50.395Z,2.90
2019-04-05T03:52:53.829Z,2.60
2019-04-05T03:57:57.347Z,3.12
2019-04-05T04:03:01.179Z,3.02
2019-04-05T04:08:04.974Z,2.80
2019-04-05T04:13:08.697Z,3.10
2019-04-05T04:18:12.329Z,3.00
2019-04-05T04:23:17.013Z,3.20
2019-04-05T04:28:21.408Z,2.77
2019-04-05T04:33:24.935Z,2.52
2019-04-05T04:38:28.546Z,3.30
2019-04-05T04:43:32.002Z,2.98
2019-04-05T04:48:36.698Z,2.92
2019-04-05T04:53:40.687Z,3.52
2019-04-05T04:58:46.290Z,3.02
2019-04-05T05:03:49.618Z,3.30
2019-04-05T05:08:53.089Z,3.45
2019-04-05T05:13:56.781Z,3.10
2019-04-05T05:19:01.292Z,2.67
2019-04-05T05:24:05.374Z,3.33
2019-04-05T05:29:08.818Z,2.85
2019-04-05T05:34:12.702Z,2.80
2019-04-05T05:39:16.434Z,2.42
2019-04-05T05:44:19.885Z,3.22
2019-04-05T05:49:23.335Z,3.58
2019-04-05T05:54:26.795Z,3.00
2019-04-05T05:59:30.868Z,3.50
2019-04-05T06:04:34.378Z,2.65
2019-04-05T06:09:37.841Z,3.35
2019-04-05T06:14:41.297Z,3.40
2019-04-05T06:19:44.785Z,2.40
2019-04-05T06:24:48.239Z,2.80
2019-04-05T06:29:51.702Z,2.92
2019-04-05T06:34:55.162Z,3.35
2019-04-05T06:39:58.617Z,2.47
2019-04-05T06:45:02.084Z,2.55
2019-04-05T06:50:07.501Z,2.60
2019-04-05T06:55:11.100Z,3.03
2019-04-05T07:00:14.794Z,2.90
2019-04-05T07:05:20.783Z,2.80
2019-04-05T07:10:23.423Z,2.57
2019-04-05T07:15:26.906Z,2.67
2019-04-05T07:20:30.334Z,2.90
2019-04-05T07:25:34.029Z,21.15
2019-04-05T07:30:37.547Z,29.72
2019-04-05T07:35:41.010Z,27.82
2019-04-05T07:40:44.469Z,27.80
2019-04-05T07:45:47.930Z,31.00
2019-04-05T07:50:51.395Z,30.75
2019-04-05T07:55:54.860Z,30.23
2019-04-05T08:00:58.396Z,30.90
2019-04-05T08:06:02.027Z,30.57
2019-04-05T08:11:05.807Z,30.48
2019-04-05T08:16:09.270Z,30.62
2019-04-05T08:21:12.734Z,29.45
2019-04-05T08:26:16.209Z,29.97
2019-04-05T08:31:19.668Z,29.33
2019-04-05T08:36:23.136Z,27.48
2019-04-05T08:41:26.628Z,26.27
2019-04-05T08:46:30.063Z,24.87
2019-04-05T08:51:33.589Z,20.87
2019-04-05T08:56:37.044Z,22.10
2019-04-05T09:01:40.501Z,19.90
2019-04-05T09:06:43.989Z,19.17
2019-04-05T09:11:47.425Z,17.73
2019-04-05T09:16:51.179Z,15.90
2019-04-05T09:21:54.641Z,16.52
2019-04-05T09:26:58.101Z,15.53
2019-04-05T09:32:01.561Z,14.80
2019-04-05T09:37:05.198Z,14.13
2019-04-05T09:42:08.659Z,14.57
2019-04-05T09:47:12.123Z,13.50
2019-04-05T09:52:15.585Z,12.82
2019-04-05T09:57:19.044Z,12.07
2019-04-05T10:02:22.500Z,11.77
2019-04-05T10:07:25.973Z,12.95
2019-04-05T10:12:29.435Z,12.00
2019-04-05T10:17:32.963Z,13.62
2019-04-05T10:22:36.699Z,12.97
2019-04-05T10:27:40.182Z,13.93
2019-04-05T10:32:46.156Z,12.88
2019-04-05T10:37:48.862Z,12.40
2019-04-05T10:42:52.322Z,13.38
2019-04-05T10:47:55.782Z,11.73
2019-04-05T10:52:59.301Z,11.43
2019-04-05T10:58:02.999Z,11.55
2019-04-05T11:03:06.484Z,12.33
2019-04-05T11:08:09.963Z,13.70
2019-04-05T11:13:13.448Z,12.15
2019-04-05T11:18:16.963Z,13.00
2019-04-05T11:23:21.517Z,11.47
2019-04-05T11:28:25.388Z,11.97
2019-04-05T11:33:28.873Z,13.35
2019-04-05T11:38:32.524Z,11.50
2019-04-05T11:43:37.244Z,11.78
2019-04-05T11:48:41.354Z,12.07
2019-04-05T11:53:45.065Z,10.17
2019-04-05T11:58:49.625Z,12.30
2019-04-05T12:03:53.102Z,13.00
2019-04-05T12:08:56.576Z,10.78
2019-04-05T12:14:00.078Z,11.60
2019-04-05T12:19:04.842Z,10.48
2019-04-05T12:24:08.921Z,10.45
2019-04-05T12:29:12.399Z,10.67
2019-04-05T12:34:15.874Z,9.53
2019-04-05T12:39:19.351Z,9.63
2019-04-05T12:44:22.832Z,10.03
2019-04-05T12:49:26.334Z,10.50
2019-04-05T12:54:29.812Z,10.65
2019-04-05T12:59:33.281Z,9.63
2019-04-05T13:04:36.766Z,10.20
2019-04-05T13:09:40.245Z,9.73
2019-04-05T13:14:43.724Z,8.75
2019-04-05T13:19:47.198Z,10.38
2019-04-05T13:24:50.702Z,9.33
2019-04-05T13:29:54.161Z,10.60
2019-04-05T13:34:57.631Z,9.60
2019-04-05T13:40:01.111Z,9.23
2019-04-05T13:45:07.725Z,10.40
2019-04-05T13:50:12.406Z,10.20
2019-04-05T13:55:15.831Z,9.27
2019-04-05T14:00:19.854Z,9.97
2019-04-05T14:05:24.114Z,9.83
2019-04-05T14:10:27.585Z,9.40
2019-04-05T14:15:31.544Z,9.48
2019-04-05T14:20:35.234Z,10.00
2019-04-05T14:25:38.718Z,9.53
2019-04-05T14:30:42.203Z,9.55
2019-04-05T14:35:45.671Z,8.60
2019-04-05T14:40:49.141Z,9.70
2019-04-05T14:45:52.618Z,10.23
2019-04-05T14:50:57.897Z,10.48
2019-04-05T14:56:01.297Z,9.87
2019-04-05T15:01:05.012Z,9.93
2019-04-05T15:06:08.489Z,10.10
2019-04-05T15:11:11.971Z,10.28
2019-04-05T15:16:15.460Z,10.80
2019-04-05T15:21:18.943Z,10.03
2019-04-05T15:26:22.420Z,10.95
2019-04-05T15:31:26.624Z,10.08
2019-04-05T15:36:31.659Z,10.10
2019-04-05T15:41:35.348Z,9.98
2019-04-05T15:46:38.831Z,10.05
2019-04-05T15:51:42.311Z,10.82
2019-04-05T15:56:45.785Z,10.43
2019-04-05T16:01:49.265Z,9.80
2019-04-05T16:06:52.815Z,9.90
2019-04-05T16:11:56.293Z,10.80
2019-04-05T16:16:59.832Z,9.73
2019-04-05T16:22:03.309Z,9.63
2019-04-05T16:27:06.781Z,9.60
2019-04-05T16:32:11.463Z,8.60
2019-04-05T16:37:14.933Z,8.50
2019-04-05T16:42:18.404Z,8.40
2019-04-05T16:47:21.879Z,10.10
2019-04-05T16:52:25.355Z,11.03
2019-04-05T16:57:28.875Z,10.55
2019-04-05T17:02:32.352Z,12.10
2019-04-05T17:07:35.825Z,11.63
2019-04-05T17:12:39.298Z,10.78
2019-04-05T17:17:42.768Z,12.68
2019-04-05T17:22:57.485Z,11.40
2019-04-05T17:27:51.410Z,11.50
2019-04-05T17:32:54.883Z,11.48
2019-04-05T17:37:58.343Z,10.32
2019-04-05T17:43:01.870Z,10.50
2019-04-05T17:48:05.349Z,10.68
2019-04-05T17:53:12.671Z,11.03
2019-04-05T17:58:14.630Z,10.82
2019-04-05T18:03:18.084Z,9.45
2019-04-05T18:08:21.543Z,9.25
2019-04-05T18:13:24.998Z,8.83
2019-04-05T18:18:28.454Z,9.38
2019-04-05T18:23:31.911Z,9.70
2019-04-05T18:28:35.602Z,10.17
2019-04-05T18:33:39.068Z,9.28
2019-04-05T18:38:42.529Z,9.73
2019-04-05T18:43:45.985Z,8.88
2019-04-05T18:48:49.513Z,9.10
2019-04-05T18:53:52.979Z,8.10
2019-04-05T18:58:56.434Z,9.00
2019-04-05T19:03:59.887Z,9.70
2019-04-05T19:09:05.255Z,9.08
2019-04-05T19:14:08.773Z,8.60
2019-04-05T19:19:12.239Z,9.38
2019-04-05T19:24:15.702Z,9.73
2019-04-05T19:29:19.160Z,8.60
2019-04-05T19:49:38.176Z,9.20
2019-04-05T19:54:41.629Z,9.83
2019-04-05T19:59:45.088Z,10.20
2019-04-05T20:04:48.544Z,8.60
2019-04-05T20:09:52.001Z,9.15
2019-04-05T20:14:55.459Z,8.80
2019-04-05T20:19:58.915Z,8.70
2019-04-05T20:25:02.548Z,8.93
2019-04-05T20:30:07.945Z,8.53
2019-04-05T20:35:11.590Z,8.30
2019-04-05T20:40:15.068Z,7.17
2019-04-05T20:45:18.556Z,7.17
2019-04-05T20:50:22.026Z,7.13
2019-04-05T20:55:25.472Z,7.85
2019-04-05T21:00:28.933Z,7.40
2019-04-05T21:05:32.395Z,6.93
2019-04-05T21:10:35.869Z,7.00
2019-04-05T21:15:39.373Z,6.35
2019-04-05T21:20:42.836Z,6.83
2019-04-05T21:25:46.290Z,7.05
2019-04-05T21:30:49.744Z,7.17
2019-04-05T21:35:53.197Z,7.28
2019-04-05T21:40:56.646Z,6.03
2019-04-05T21:46:00.102Z,6.65
2019-04-05T21:51:03.631Z,5.92
2019-04-05T21:56:07.090Z,6.60
2019-04-05T22:01:11.257Z,6.53
2019-04-05T22:06:14.713Z,5.97
2019-04-05T22:11:18.435Z,5.75
2019-04-05T22:16:21.891Z,6.22
2019-04-05T22:21:25.350Z,6.25
2019-04-05T22:26:29.064Z,5.87
2019-04-05T22:31:32.518Z,6.75
2019-04-05T22:36:35.978Z,6.08
2019-04-05T22:41:39.426Z,5.60
2019-04-05T22:46:42.884Z,5.83
2019-04-05T22:51:46.336Z,6.33
2019-04-05T22:56:49.807Z,5.70
2019-04-05T23:01:53.261Z,5.53
2019-04-05T23:06:56.739Z,6.35
2019-04-05T23:12:00.212Z,5.92
2019-04-05T23:17:03.664Z,5.58
2019-04-05T23:22:07.117Z,5.87
2019-04-05T23:27:10.575Z,5.67
2019-04-05T23:32:14.024Z,5.08
2019-04-05T23:37:17.476Z,5.77
2019-04-05T23:42:20.932Z,5.22
2019-04-05T23:47:24.383Z,5.10
2019-04-05T23:52:27.834Z,5.28
2019-04-05T23:57:31.287Z,5.70
